Tattenhall, United Kingdom
Current Conditions -  °F | °C
As of 6:20 PM on Thursday 23 Oct 2014 (Local Time) from EGNR Reporting Station
Scattered Clouds Scattered Clouds  
Wind Chill: 61°   Ceiling: Unl
Heat Index: 61°   Visibility: 6mi
Dew Point: 55°   Wind: 12mph
Humidity: 82%   Direction: 200°SSW
Pressure: 29.88"   Gusts: 23mph
Location:  53.12°N, 2.77°W
Report Text: EGNR 231720Z 20010G20KT 160V240 9999 FEW018 SCT021 16/13 Q1012
Loading
Personal Weather Stations






























Interactive Weather Map
Tropical Storm Tracking
New forecast layout! Learn more

10-Day Weather Forecast

Advertisements
Track Severe Weather on mobile